sensor_id;sensor_type;location;lat;lon;timestamp;pressure;altitude;pressure_sealevel;temperature;humidity
5500;BME280;2772;42.700;23.304;2023-02-18T00:00:28;95901.41;;;7.98;100.00
5500;BME280;2772;42.700;23.304;2023-02-18T00:02:55;95895.31;;;7.97;100.00
5500;BME280;2772;42.700;23.304;2023-02-18T00:05:21;95890.81;;;7.93;100.00
5500;BME280;2772;42.700;23.304;2023-02-18T00:07:48;95889.50;;;7.90;100.00
5500;BME280;2772;42.700;23.304;2023-02-18T00:10:17;95889.50;;;7.90;100.00
5500;BME280;2772;42.700;23.304;2023-02-18T00:12:44;95879.16;;;7.89;100.00
5500;BME280;2772;42.700;23.304;2023-02-18T00:15:10;95885.75;;;7.96;100.00
5500;BME280;2772;42.700;23.304;2023-02-18T00:17:37;95881.81;;;7.89;100.00
5500;BME280;2772;42.700;23.304;2023-02-18T00:20:06;95872.00;;;7.89;100.00
5500;BME280;2772;42.700;23.304;2023-02-18T00:22:33;95871.41;;;8.07;100.00
5500;BME280;2772;42.700;23.304;2023-02-18T00:24:59;95872.00;;;7.94;92.70
5500;BME280;2772;42.700;23.304;2023-02-18T00:27:27;95859.28;;;7.91;96.58
5500;BME280;2772;42.700;23.304;2023-02-18T00:29:54;95854.47;;;7.93;100.00
5500;BME280;2772;42.700;23.304;2023-02-18T00:32:21;95848.63;;;7.96;100.00
5500;BME280;2772;42.700;23.304;2023-02-18T00:34:47;95844.94;;;7.97;100.00
5500;BME280;2772;42.700;23.304;2023-02-18T00:37:14;95847.66;;;7.77;100.00
5500;BME280;2772;42.700;23.304;2023-02-18T00:39:41;95846.59;;;7.78;100.00
5500;BME280;2772;42.700;23.304;2023-02-18T00:42:08;95851.88;;;7.83;100.00
5500;BME280;2772;42.700;23.304;2023-02-18T00:44:36;95847.13;;;7.70;100.00
5500;BME280;2772;42.700;23.304;2023-02-18T00:47:03;95854.59;;;7.58;100.00
5500;BME280;2772;42.700;23.304;2023-02-18T00:49:30;95836.31;;;7.42;100.00
5500;BME280;2772;42.700;23.304;2023-02-18T00:51:57;95844.00;;;7.53;100.00
5500;BME280;2772;42.700;23.304;2023-02-18T00:54:24;95836.84;;;7.54;100.00
5500;BME280;2772;42.700;23.304;2023-02-18T00:56:50;95837.88;;;7.68;100.00
5500;BME280;2772;42.700;23.304;2023-02-18T00:59:17;95848.50;;;7.58;98.11
5500;BME280;2772;42.700;23.304;2023-02-18T01:01:45;95847.44;;;7.54;97.16
5500;BME280;2772;42.700;23.304;2023-02-18T01:04:12;95841.38;;;7.38;90.51
5500;BME280;2772;42.700;23.304;2023-02-18T01:06:39;95840.06;;;7.36;93.21
5500;BME280;2772;42.700;23.304;2023-02-18T01:09:05;95840.31;;;7.34;100.00
5500;BME280;2772;42.700;23.304;2023-02-18T01:11:32;95843.47;;;7.46;100.00
5500;BME280;2772;42.700;23.304;2023-02-18T01:13:59;95843.78;;;7.40;100.00
5500;BME280;2772;42.700;23.304;2023-02-18T01:16:26;95836.06;;;7.43;100.00
5500;BME280;2772;42.700;23.304;2023-02-18T01:18:54;95834.75;;;7.41;100.00
5500;BME280;2772;42.700;23.304;2023-02-18T01:21:21;95841.34;;;7.48;100.00
5500;BME280;2772;42.700;23.304;2023-02-18T01:23:48;95840.31;;;7.34;87.13
5500;BME280;2772;42.700;23.304;2023-02-18T01:26:14;95845.91;;;7.08;82.43
5500;BME280;2772;42.700;23.304;2023-02-18T01:28:41;95837.72;;;6.99;82.80
5500;BME280;2772;42.700;23.304;2023-02-18T01:31:11;95839.31;;;7.05;82.58
5500;BME280;2772;42.700;23.304;2023-02-18T01:33:38;95836.13;;;7.03;81.87
5500;BME280;2772;42.700;23.304;2023-02-18T01:36:07;95838.25;;;6.96;81.83
5500;BME280;2772;42.700;23.304;2023-02-18T01:38:34;95836.09;;;6.98;82.78
5500;BME280;2772;42.700;23.304;2023-02-18T01:41:01;95839.81;;;6.97;83.14
5500;BME280;2772;42.700;23.304;2023-02-18T01:43:28;95838.75;;;6.68;83.40
5500;BME280;2772;42.700;23.304;2023-02-18T01:46:14;95848.28;;;6.69;84.69
5500;BME280;2772;42.700;23.304;2023-02-18T01:48:44;95845.09;;;6.67;84.08
5500;BME280;2772;42.700;23.304;2023-02-18T01:51:16;95850.91;;;6.64;85.10
5500;BME280;2772;42.700;23.304;2023-02-18T01:53:49;95849.88;;;6.60;84.96
5500;BME280;2772;42.700;23.304;2023-02-18T01:56:22;95861.22;;;6.51;85.57
5500;BME280;2772;42.700;23.304;2023-02-18T01:58:50;95861.78;;;6.53;85.73
5500;BME280;2772;42.700;23.304;2023-02-18T02:01:19;95850.91;;;6.49;86.21
5500;BME280;2772;42.700;23.304;2023-02-18T02:03:46;95859.91;;;6.53;85.62
5500;BME280;2772;42.700;23.304;2023-02-18T02:06:17;95846.66;;;6.53;85.52
5500;BME280;2772;42.700;23.304;2023-02-18T02:08:46;95838.19;;;6.51;85.92
5500;BME280;2772;42.700;23.304;2023-02-18T02:11:22;95839.78;;;6.47;86.14
5500;BME280;2772;42.700;23.304;2023-02-18T02:14:07;95837.09;;;6.37;87.04
5500;BME280;2772;42.700;23.304;2023-02-18T02:16:42;95842.66;;;6.35;87.71
5500;BME280;2772;42.700;23.304;2023-02-18T02:19:28;95848.72;;;6.21;87.77
5500;BME280;2772;42.700;23.304;2023-02-18T02:25:18;95858.00;;;6.28;88.10
5500;BME280;2772;42.700;23.304;2023-02-18T02:31:12;95841.34;;;6.33;88.11
5500;BME280;2772;42.700;23.304;2023-02-18T02:36:40;95831.81;;;6.37;87.95
5500;BME280;2772;42.700;23.304;2023-02-18T02:39:14;95835.25;;;6.37;87.85
5500;BME280;2772;42.700;23.304;2023-02-18T02:41:51;95815.16;;;6.31;88.02
5500;BME280;2772;42.700;23.304;2023-02-18T02:44:24;95823.34;;;6.30;87.96
5500;BME280;2772;42.700;23.304;2023-02-18T02:46:57;95819.13;;;6.34;88.35
5500;BME280;2772;42.700;23.304;2023-02-18T02:49:35;95810.31;;;6.03;90.16
5500;BME280;2772;42.700;23.304;2023-02-18T02:52:07;95820.41;;;6.16;90.80
5500;BME280;2772;42.700;23.304;2023-02-18T02:54:36;95824.63;;;6.17;90.11
5500;BME280;2772;42.700;23.304;2023-02-18T02:57:08;95836.53;;;6.15;90.58
5500;BME280;2772;42.700;23.304;2023-02-18T02:59:36;95840.78;;;6.21;90.98
5500;BME280;2772;42.700;23.304;2023-02-18T03:02:17;95845.81;;;6.22;90.33
5500;BME280;2772;42.700;23.304;2023-02-18T03:05:02;95846.34;;;6.19;90.09
5500;BME280;2772;42.700;23.304;2023-02-18T03:10:41;95833.91;;;6.15;90.33
5500;BME280;2772;42.700;23.304;2023-02-18T03:13:17;95828.34;;;6.11;91.06
5500;BME280;2772;42.700;23.304;2023-02-18T03:15:53;95825.97;;;6.15;90.92
5500;BME280;2772;42.700;23.304;2023-02-18T03:18:25;95835.47;;;6.11;91.73
5500;BME280;2772;42.700;23.304;2023-02-18T03:20:59;95841.03;;;6.14;91.34
5500;BME280;2772;42.700;23.304;2023-02-18T03:23:33;95862.69;;;6.11;90.73
5500;BME280;2772;42.700;23.304;2023-02-18T03:26:03;95857.38;;;6.06;90.87
5500;BME280;2772;42.700;23.304;2023-02-18T03:28:32;95857.13;;;6.08;90.36
5500;BME280;2772;42.700;23.304;2023-02-18T03:31:04;95870.09;;;6.09;90.20
5500;BME280;2772;42.700;23.304;2023-02-18T03:33:36;95891.19;;;5.94;91.34
5500;BME280;2772;42.700;23.304;2023-02-18T03:36:05;95888.53;;;5.94;92.01
5500;BME280;2772;42.700;23.304;2023-02-18T03:38:37;95885.28;;;5.82;90.97
5500;BME280;2772;42.700;23.304;2023-02-18T03:41:05;95894.78;;;5.78;92.51
5500;BME280;2772;42.700;23.304;2023-02-18T03:43:32;95881.91;;;5.87;92.59
5500;BME280;2772;42.700;23.304;2023-02-18T03:45:59;95887.19;;;5.87;91.28
5500;BME280;2772;42.700;23.304;2023-02-18T03:48:26;95887.09;;;5.77;91.49
5500;BME280;2772;42.700;23.304;2023-02-18T03:50:53;95893.19;;;5.77;91.56
5500;BME280;2772;42.700;23.304;2023-02-18T03:53:20;95893.44;;;5.76;92.22
5500;BME280;2772;42.700;23.304;2023-02-18T03:55:48;95901.34;;;5.71;92.51
5500;BME280;2772;42.700;23.304;2023-02-18T03:58:14;95895.00;;;5.72;93.54
5500;BME280;2772;42.700;23.304;2023-02-18T04:00:41;95883.84;;;5.60;94.53
5500;BME280;2772;42.700;23.304;2023-02-18T04:03:08;95884.88;;;5.54;96.48
5500;BME280;2772;42.700;23.304;2023-02-18T04:05:34;95874.84;;;5.61;96.74
5500;BME280;2772;42.700;23.304;2023-02-18T04:08:01;95864.47;;;5.44;97.52
5500;BME280;2772;42.700;23.304;2023-02-18T04:10:28;95879.28;;;5.50;97.06
5500;BME280;2772;42.700;23.304;2023-02-18T04:12:56;95876.34;;;5.47;97.33
5500;BME280;2772;42.700;23.304;2023-02-18T04:15:22;95876.91;;;5.49;97.36
5500;BME280;2772;42.700;23.304;2023-02-18T04:17:49;95864.63;;;5.33;97.84
5500;BME280;2772;42.700;23.304;2023-02-18T04:20:16;95861.06;;;5.49;98.45
5500;BME280;2772;42.700;23.304;2023-02-18T04:22:43;95861.34;;;5.52;98.12
5500;BME280;2772;42.700;23.304;2023-02-18T04:25:10;95858.47;;;5.59;97.63
5500;BME280;2772;42.700;23.304;2023-02-18T04:27:36;95857.44;;;5.65;97.01
5500;BME280;2772;42.700;23.304;2023-02-18T04:30:05;95849.53;;;5.65;96.79
5500;BME280;2772;42.700;23.304;2023-02-18T04:32:32;95851.91;;;5.66;96.82
5500;BME280;2772;42.700;23.304;2023-02-18T04:34:59;95857.41;;;5.60;96.58
5500;BME280;2772;42.700;23.304;2023-02-18T04:37:26;95857.97;;;5.62;97.60
5500;BME280;2772;42.700;23.304;2023-02-18T04:39:52;95858.47;;;5.59;98.13
5500;BME280;2772;42.700;23.304;2023-02-18T04:42:19;95855.84;;;5.64;98.12
5500;BME280;2772;42.700;23.304;2023-02-18T04:44:46;95863.81;;;5.69;98.13
5500;BME280;2772;42.700;23.304;2023-02-18T04:47:14;95862.72;;;5.65;98.29
5500;BME280;2772;42.700;23.304;2023-02-18T04:49:40;95867.50;;;5.68;98.29
5500;BME280;2772;42.700;23.304;2023-02-18T04:52:07;95859.25;;;5.59;99.17
5500;BME280;2772;42.700;23.304;2023-02-18T04:54:34;95873.31;;;5.65;98.98
5500;BME280;2772;42.700;23.304;2023-02-18T04:57:00;95879.66;;;5.69;98.40
5500;BME280;2772;42.700;23.304;2023-02-18T04:59:27;95881.50;;;5.68;98.19
5500;BME280;2772;42.700;23.304;2023-02-18T05:01:54;95885.22;;;5.72;97.78
5500;BME280;2772;42.700;23.304;2023-02-18T05:04:22;95896.00;;;5.66;98.44
5500;BME280;2772;42.700;23.304;2023-02-18T05:06:49;95891.69;;;5.50;97.85
5500;BME280;2772;42.700;23.304;2023-02-18T05:09:16;95888.06;;;5.56;98.05
5500;BME280;2772;42.700;23.304;2023-02-18T05:11:42;95870.06;;;5.58;98.17
5500;BME280;2772;42.700;23.304;2023-02-18T05:14:09;95886.47;;;5.60;98.19
5500;BME280;2772;42.700;23.304;2023-02-18T05:16:36;95874.25;;;5.49;98.75
5500;BME280;2772;42.700;23.304;2023-02-18T05:19:03;95874.34;;;5.59;98.33
5500;BME280;2772;42.700;23.304;2023-02-18T05:21:32;95860.41;;;5.32;99.37
5500;BME280;2772;42.700;23.304;2023-02-18T05:23:59;95860.69;;;5.30;100.00
5500;BME280;2772;42.700;23.304;2023-02-18T05:26:26;95869.59;;;4.87;100.00
5500;BME280;2772;42.700;23.304;2023-02-18T05:28:53;95867.00;;;4.93;100.00
5500;BME280;2772;42.700;23.304;2023-02-18T05:31:19;95870.19;;;5.00;100.00
5500;BME280;2772;42.700;23.304;2023-02-18T05:33:46;95859.66;;;5.00;100.00
5500;BME280;2772;42.700;23.304;2023-02-18T05:36:13;95861.34;;;5.16;100.00
5500;BME280;2772;42.700;23.304;2023-02-18T05:38:41;95866.78;;;5.36;100.00
5500;BME280;2772;42.700;23.304;2023-02-18T05:41:07;95871.78;;;5.32;100.00
5500;BME280;2772;42.700;23.304;2023-02-18T05:43:34;95862.59;;;5.40;100.00
5500;BME280;2772;42.700;23.304;2023-02-18T05:46:22;95862.91;;;5.53;100.00
5500;BME280;2772;42.700;23.304;2023-02-18T05:48:49;95863.69;;;5.49;100.00
5500;BME280;2772;42.700;23.304;2023-02-18T05:51:15;95883.28;;;5.58;100.00
5500;BME280;2772;42.700;23.304;2023-02-18T05:53:43;95883.75;;;5.45;100.00
5500;BME280;2772;42.700;23.304;2023-02-18T05:56:10;95881.72;;;5.57;100.00
5500;BME280;2772;42.700;23.304;2023-02-18T05:58:37;95879.84;;;5.52;100.00
5500;BME280;2772;42.700;23.304;2023-02-18T06:01:03;95894.69;;;5.68;100.00
5500;BME280;2772;42.700;23.304;2023-02-18T06:03:30;95896.34;;;5.74;100.00
5500;BME280;2772;42.700;23.304;2023-02-18T06:05:57;95894.06;;;5.88;100.00
5500;BME280;2772;42.700;23.304;2023-02-18T06:08:23;95872.63;;;5.84;100.00
5500;BME280;2772;42.700;23.304;2023-02-18T06:10:51;95880.06;;;5.92;100.00
5500;BME280;2772;42.700;23.304;2023-02-18T06:13:19;95885.66;;;6.01;100.00
5500;BME280;2772;42.700;23.304;2023-02-18T06:15:48;95876.72;;;6.12;100.00
5500;BME280;2772;42.700;23.304;2023-02-18T06:18:15;95875.94;;;6.16;100.00
5500;BME280;2772;42.700;23.304;2023-02-18T06:20:42;95877.53;;;6.17;100.00
5500;BME280;2772;42.700;23.304;2023-02-18T06:23:09;95886.53;;;6.26;100.00
5500;BME280;2772;42.700;23.304;2023-02-18T06:25:35;95882.06;;;6.27;100.00
5500;BME280;2772;42.700;23.304;2023-02-18T06:28:04;95869.34;;;6.24;100.00
5500;BME280;2772;42.700;23.304;2023-02-18T06:30:30;95858.00;;;6.28;100.00
5500;BME280;2772;42.700;23.304;2023-02-18T06:32:57;95864.34;;;6.37;100.00
5500;BME280;2772;42.700;23.304;2023-02-18T06:35:24;95856.44;;;6.37;100.00
5500;BME280;2772;42.700;23.304;2023-02-18T06:37:50;95864.13;;;6.49;100.00
5500;BME280;2772;42.700;23.304;2023-02-18T06:40:17;95872.06;;;6.49;100.00
5500;BME280;2772;42.700;23.304;2023-02-18T06:42:44;95867.31;;;6.56;100.00
5500;BME280;2772;42.700;23.304;2023-02-18T06:45:12;95872.38;;;6.68;100.00
5500;BME280;2772;42.700;23.304;2023-02-18T06:47:39;95878.19;;;6.80;100.00
5500;BME280;2772;42.700;23.304;2023-02-18T06:50:06;95866.28;;;6.72;100.00
5500;BME280;2772;42.700;23.304;2023-02-18T06:52:34;95861.53;;;6.84;100.00
5500;BME280;2772;42.700;23.304;2023-02-18T06:55:02;95861.25;;;6.86;100.00
5500;BME280;2772;42.700;23.304;2023-02-18T06:57:29;95870.53;;;6.93;100.00
5500;BME280;2772;42.700;23.304;2023-02-18T06:59:56;95869.50;;;6.99;100.00
5500;BME280;2772;42.700;23.304;2023-02-18T07:02:24;95868.69;;;7.14;100.00
5500;BME280;2772;42.700;23.304;2023-02-18T07:04:51;95867.91;;;7.13;100.00
5500;BME280;2772;42.700;23.304;2023-02-18T07:07:17;95864.47;;;7.23;100.00
5500;BME280;2772;42.700;23.304;2023-02-18T07:09:44;95866.56;;;7.26;100.00
5500;BME280;2772;42.700;23.304;2023-02-18T07:12:11;95863.09;;;7.45;100.00
5500;BME280;2772;42.700;23.304;2023-02-18T07:14:38;95852.75;;;7.54;99.08
5500;BME280;2772;42.700;23.304;2023-02-18T07:17:05;95858.56;;;7.56;96.23
5500;BME280;2772;42.700;23.304;2023-02-18T07:19:33;95843.81;;;8.08;100.00
5500;BME280;2772;42.700;23.304;2023-02-18T07:21:59;95858.50;;;8.45;100.00
5500;BME280;2772;42.700;23.304;2023-02-18T07:24:26;95846.19;;;8.64;100.00
5500;BME280;2772;42.700;23.304;2023-02-18T07:26:53;95840.19;;;8.87;100.00
5500;BME280;2772;42.700;23.304;2023-02-18T07:29:19;95849.91;;;9.01;100.00
5500;BME280;2772;42.700;23.304;2023-02-18T07:31:46;95850.44;;;9.03;96.46
5500;BME280;2772;42.700;23.304;2023-02-18T07:34:13;95853.31;;;8.73;86.50
5500;BME280;2772;42.700;23.304;2023-02-18T07:36:41;95864.16;;;8.82;86.04
5500;BME280;2772;42.700;23.304;2023-02-18T07:39:07;95854.84;;;8.79;83.21
5500;BME280;2772;42.700;23.304;2023-02-18T07:41:34;95872.69;;;8.74;82.05
5500;BME280;2772;42.700;23.304;2023-02-18T07:44:01;95870.03;;;8.74;82.82
5500;BME280;2772;42.700;23.304;2023-02-18T07:46:27;95873.81;;;8.63;83.20
5500;BME280;2772;42.700;23.304;2023-02-18T07:48:55;95876.19;;;8.64;82.35
5500;BME280;2772;42.700;23.304;2023-02-18T07:51:22;95866.84;;;8.72;83.70
5500;BME280;2772;42.700;23.304;2023-02-18T07:53:50;95876.66;;;8.71;80.48
5500;BME280;2772;42.700;23.304;2023-02-18T07:56:16;95871.91;;;8.68;79.00
5500;BME280;2772;42.700;23.304;2023-02-18T07:58:43;95870.28;;;8.77;78.46
5500;BME280;2772;42.700;23.304;2023-02-18T08:01:11;95862.06;;;8.74;77.59
5500;BME280;2772;42.700;23.304;2023-02-18T08:03:40;95863.41;;;8.71;77.67
5500;BME280;2772;42.700;23.304;2023-02-18T08:06:07;95870.59;;;8.71;78.49
5500;BME280;2772;42.700;23.304;2023-02-18T08:08:39;95873.63;;;8.93;78.11
5500;BME280;2772;42.700;23.304;2023-02-18T08:11:08;95866.63;;;9.07;77.70
5500;BME280;2772;42.700;23.304;2023-02-18T08:13:34;95868.19;;;9.08;77.08
5500;BME280;2772;42.700;23.304;2023-02-18T08:16:01;95862.81;;;9.18;76.05
5500;BME280;2772;42.700;23.304;2023-02-18T08:18:28;95857.91;;;9.30;75.64
5500;BME280;2772;42.700;23.304;2023-02-18T08:20:54;95855.94;;;9.12;75.49
5500;BME280;2772;42.700;23.304;2023-02-18T08:23:22;95849.44;;;9.28;75.62
5500;BME280;2772;42.700;23.304;2023-02-18T08:25:51;95838.22;;;9.31;75.22
5500;BME280;2772;42.700;23.304;2023-02-18T08:28:21;95842.00;;;9.25;75.36
5500;BME280;2772;42.700;23.304;2023-02-18T08:30:49;95842.16;;;9.38;75.94
5500;BME280;2772;42.700;23.304;2023-02-18T08:33:17;95836.09;;;9.33;75.34
5500;BME280;2772;42.700;23.304;2023-02-18T08:35:45;95853.78;;;9.47;75.60
5500;BME280;2772;42.700;23.304;2023-02-18T08:38:13;95844.84;;;9.62;74.76
5500;BME280;2772;42.700;23.304;2023-02-18T08:40:40;95834.06;;;9.77;74.50
5500;BME280;2772;42.700;23.304;2023-02-18T08:43:06;95837.09;;;9.89;74.21
5500;BME280;2772;42.700;23.304;2023-02-18T08:45:35;95835.31;;;10.08;72.94
5500;BME280;2772;42.700;23.304;2023-02-18T08:48:02;95838.06;;;10.22;71.47
5500;BME280;2772;42.700;23.304;2023-02-18T08:50:29;95840.75;;;10.40;70.50
5500;BME280;2772;42.700;23.304;2023-02-18T08:52:56;95845.31;;;10.58;69.83
5500;BME280;2772;42.700;23.304;2023-02-18T08:55:24;95839.75;;;10.73;68.99
5500;BME280;2772;42.700;23.304;2023-02-18T08:57:51;95844.84;;;10.88;68.05
5500;BME280;2772;42.700;23.304;2023-02-18T09:00:18;95846.59;;;10.98;65.80
5500;BME280;2772;42.700;23.304;2023-02-18T09:02:46;95837.13;;;11.05;63.78
5500;BME280;2772;42.700;23.304;2023-02-18T09:05:13;95839.94;;;11.14;62.86
5500;BME280;2772;42.700;23.304;2023-02-18T09:07:40;95835.81;;;11.21;62.25
5500;BME280;2772;42.700;23.304;2023-02-18T09:10:08;95853.56;;;11.12;61.29
5500;BME280;2772;42.700;23.304;2023-02-18T09:12:35;95842.09;;;11.12;61.08
5500;BME280;2772;42.700;23.304;2023-02-18T09:15:02;95834.59;;;11.14;61.14
5500;BME280;2772;42.700;23.304;2023-02-18T09:17:29;95837.50;;;11.17;61.10
5500;BME280;2772;42.700;23.304;2023-02-18T09:19:57;95833.88;;;11.27;61.25
5500;BME280;2772;42.700;23.304;2023-02-18T09:22:24;95841.00;;;11.32;61.32
5500;BME280;2772;42.700;23.304;2023-02-18T09:24:51;95843.97;;;11.44;60.58
5500;BME280;2772;42.700;23.304;2023-02-18T09:27:18;95832.50;;;11.43;60.92
5500;BME280;2772;42.700;23.304;2023-02-18T09:29:44;95815.16;;;11.59;60.65
5500;BME280;2772;42.700;23.304;2023-02-18T09:32:11;95814.41;;;11.72;60.14
5500;BME280;2772;42.700;23.304;2023-02-18T09:34:38;95815.00;;;11.83;59.64
5500;BME280;2772;42.700;23.304;2023-02-18T09:37:06;95821.03;;;12.02;59.22
5500;BME280;2772;42.700;23.304;2023-02-18T09:39:32;95810.34;;;12.15;58.51
5500;BME280;2772;42.700;23.304;2023-02-18T09:42:01;95806.88;;;12.28;57.52
5500;BME280;2772;42.700;23.304;2023-02-18T09:44:31;95811.00;;;12.48;56.65
5500;BME280;2772;42.700;23.304;2023-02-18T09:47:01;95811.75;;;12.62;55.16
5500;BME280;2772;42.700;23.304;2023-02-18T09:49:31;95799.94;;;12.76;55.42
5500;BME280;2772;42.700;23.304;2023-02-18T09:52:05;95811.13;;;12.78;54.98
5500;BME280;2772;42.700;23.304;2023-02-18T09:54:34;95812.16;;;12.91;54.26
5500;BME280;2772;42.700;23.304;2023-02-18T09:57:01;95801.63;;;12.95;53.60
5500;BME280;2772;42.700;23.304;2023-02-18T09:59:29;95797.78;;;13.01;53.20
5500;BME280;2772;42.700;23.304;2023-02-18T10:01:56;95794.91;;;12.97;51.86
5500;BME280;2772;42.700;23.304;2023-02-18T10:04:26;95795.59;;;13.03;51.46
5500;BME280;2772;42.700;23.304;2023-02-18T10:06:55;95787.97;;;13.18;50.42
5500;BME280;2772;42.700;23.304;2023-02-18T10:09:24;95791.06;;;13.34;50.25
5500;BME280;2772;42.700;23.304;2023-02-18T10:11:57;95776.38;;;13.53;49.79
5500;BME280;2772;42.700;23.304;2023-02-18T10:14:24;95770.94;;;13.67;46.97
5500;BME280;2772;42.700;23.304;2023-02-18T10:16:51;95772.88;;;13.83;46.51
5500;BME280;2772;42.700;23.304;2023-02-18T10:19:22;95771.50;;;13.94;44.64
5500;BME280;2772;42.700;23.304;2023-02-18T10:21:50;95770.91;;;14.06;44.26
5500;BME280;2772;42.700;23.304;2023-02-18T10:24:25;95768.41;;;14.18;44.08
5500;BME280;2772;42.700;23.304;2023-02-18T10:26:53;95756.81;;;14.31;44.00
5500;BME280;2772;42.700;23.304;2023-02-18T10:29:22;95755.41;;;14.42;43.24
5500;BME280;2772;42.700;23.304;2023-02-18T10:31:52;95747.38;;;14.42;42.29
5500;BME280;2772;42.700;23.304;2023-02-18T10:34:29;95747.50;;;14.37;42.20
5500;BME280;2772;42.700;23.304;2023-02-18T10:37:05;95749.09;;;14.47;41.85
5500;BME280;2772;42.700;23.304;2023-02-18T10:39:50;95739.97;;;14.56;41.63
5500;BME280;2772;42.700;23.304;2023-02-18T10:42:29;95738.38;;;14.72;41.27
5500;BME280;2772;42.700;23.304;2023-02-18T10:45:09;95734.09;;;14.88;40.85
5500;BME280;2772;42.700;23.304;2023-02-18T10:47:41;95730.13;;;14.94;40.59
5500;BME280;2772;42.700;23.304;2023-02-18T10:50:11;95714.97;;;15.07;40.73
5500;BME280;2772;42.700;23.304;2023-02-18T10:52:41;95725.53;;;15.20;40.17
5500;BME280;2772;42.700;23.304;2023-02-18T10:55:09;95712.06;;;15.29;39.61
5500;BME280;2772;42.700;23.304;2023-02-18T10:57:45;95714.28;;;15.44;39.99
5500;BME280;2772;42.700;23.304;2023-02-18T11:00:17;95709.19;;;15.51;39.69
5500;BME280;2772;42.700;23.304;2023-02-18T11:02:47;95705.53;;;15.55;40.62
5500;BME280;2772;42.700;23.304;2023-02-18T11:05:26;95698.19;;;15.44;42.23
5500;BME280;2772;42.700;23.304;2023-02-18T11:07:55;95705.59;;;15.47;41.70
5500;BME280;2772;42.700;23.304;2023-02-18T11:10:25;95710.31;;;15.50;39.24
5500;BME280;2772;42.700;23.304;2023-02-18T11:12:57;95703.97;;;15.54;39.09
5500;BME280;2772;42.700;23.304;2023-02-18T11:15:27;95708.22;;;15.55;38.88
5500;BME280;2772;42.700;23.304;2023-02-18T11:17:56;95711.31;;;15.28;38.70
5500;BME280;2772;42.700;23.304;2023-02-18T11:20:28;95696.19;;;15.07;39.44
5500;BME280;2772;42.700;23.304;2023-02-18T11:23:14;95698.59;;;15.00;39.65
5500;BME280;2772;42.700;23.304;2023-02-18T11:25:52;95676.97;;;15.05;39.97
5500;BME280;2772;42.700;23.304;2023-02-18T11:28:28;95676.16;;;15.04;39.91
5500;BME280;2772;42.700;23.304;2023-02-18T11:30:59;95675.19;;;15.09;40.00
5500;BME280;2772;42.700;23.304;2023-02-18T11:33:32;95663.19;;;15.15;40.12
5500;BME280;2772;42.700;23.304;2023-02-18T11:36:03;95658.78;;;15.19;40.29
5500;BME280;2772;42.700;23.304;2023-02-18T11:38:34;95653.84;;;15.21;40.25
5500;BME280;2772;42.700;23.304;2023-02-18T11:41:06;95651.16;;;15.21;40.29
5500;BME280;2772;42.700;23.304;2023-02-18T11:43:34;95650.50;;;15.24;40.22
5500;BME280;2772;42.700;23.304;2023-02-18T11:46:09;95644.38;;;15.23;40.60
5500;BME280;2772;42.700;23.304;2023-02-18T11:48:37;95644.81;;;15.34;40.55
5500;BME280;2772;42.700;23.304;2023-02-18T11:51:04;95644.00;;;15.42;40.07
5500;BME280;2772;42.700;23.304;2023-02-18T11:53:33;95638.72;;;15.54;40.33
5500;BME280;2772;42.700;23.304;2023-02-18T11:56:02;95626.50;;;15.65;40.33
5500;BME280;2772;42.700;23.304;2023-02-18T11:58:35;95618.41;;;15.73;40.21
5500;BME280;2772;42.700;23.304;2023-02-18T12:01:04;95620.84;;;15.87;39.87
5500;BME280;2772;42.700;23.304;2023-02-18T12:03:41;95616.19;;;15.96;39.84
5500;BME280;2772;42.700;23.304;2023-02-18T12:06:12;95620.19;;;16.11;39.68
5500;BME280;2772;42.700;23.304;2023-02-18T12:08:47;95618.56;;;16.18;39.74
5500;BME280;2772;42.700;23.304;2023-02-18T12:11:21;95612.72;;;16.16;39.62
5500;BME280;2772;42.700;23.304;2023-02-18T12:13:54;95616.84;;;16.14;39.62
5500;BME280;2772;42.700;23.304;2023-02-18T12:16:30;95623.47;;;16.16;39.97
5500;BME280;2772;42.700;23.304;2023-02-18T12:19:12;95609.97;;;16.04;40.15
5500;BME280;2772;42.700;23.304;2023-02-18T12:21:52;95617.56;;;16.02;41.01
5500;BME280;2772;42.700;23.304;2023-02-18T12:24:33;95619.69;;;15.97;41.12
5500;BME280;2772;42.700;23.304;2023-02-18T12:27:09;95606.72;;;15.99;41.35
5500;BME280;2772;42.700;23.304;2023-02-18T12:29:53;95594.19;;;16.03;41.83
5500;BME280;2772;42.700;23.304;2023-02-18T12:32:34;95584.66;;;16.05;41.80
5500;BME280;2772;42.700;23.304;2023-02-18T12:35:21;95580.41;;;16.04;41.18
5500;BME280;2772;42.700;23.304;2023-02-18T12:38:24;95578.19;;;16.06;40.83
5500;BME280;2772;42.700;23.304;2023-02-18T12:41:12;95572.63;;;16.11;40.77
5500;BME280;2772;42.700;23.304;2023-02-18T12:43:51;95580.47;;;16.16;40.47
5500;BME280;2772;42.700;23.304;2023-02-18T12:46:39;95566.69;;;16.18;40.05
5500;BME280;2772;42.700;23.304;2023-02-18T12:49:38;95567.63;;;16.22;39.95
5500;BME280;2772;42.700;23.304;2023-02-18T12:52:22;95554.41;;;16.29;39.77
5500;BME280;2772;42.700;23.304;2023-02-18T12:55:17;95550.19;;;16.40;39.90
5500;BME280;2772;42.700;23.304;2023-02-18T12:57:52;95554.88;;;16.51;39.58
5500;BME280;2772;42.700;23.304;2023-02-18T13:06:25;95550.88;;;16.69;39.00
5500;BME280;2772;42.700;23.304;2023-02-18T13:09:03;95560.28;;;16.75;38.94
5500;BME280;2772;42.700;23.304;2023-02-18T13:11:40;95558.19;;;16.81;38.95
5500;BME280;2772;42.700;23.304;2023-02-18T13:14:14;95549.56;;;16.87;39.11
5500;BME280;2772;42.700;23.304;2023-02-18T13:16:45;95562.56;;;16.97;38.96
5500;BME280;2772;42.700;23.304;2023-02-18T13:19:18;95564.59;;;17.00;39.62
5500;BME280;2772;42.700;23.304;2023-02-18T13:21:48;95552.13;;;16.96;40.40
5500;BME280;2772;42.700;23.304;2023-02-18T13:24:23;95560.22;;;16.96;40.50
5500;BME280;2772;42.700;23.304;2023-02-18T13:26:56;95564.66;;;16.68;41.45
5500;BME280;2772;42.700;23.304;2023-02-18T13:29:29;95561.41;;;16.62;41.65
5500;BME280;2772;42.700;23.304;2023-02-18T13:32:07;95555.75;;;16.55;41.88
5500;BME280;2772;42.700;23.304;2023-02-18T13:34:38;95554.75;;;16.48;42.29
5500;BME280;2772;42.700;23.304;2023-02-18T13:37:15;95549.81;;;16.50;42.36
5500;BME280;2772;42.700;23.304;2023-02-18T13:39:50;95562.88;;;16.39;42.47
5500;BME280;2772;42.700;23.304;2023-02-18T13:42:32;95559.13;;;16.32;42.63
5500;BME280;2772;42.700;23.304;2023-02-18T13:45:23;95573.72;;;16.43;42.79
5500;BME280;2772;42.700;23.304;2023-02-18T13:47:51;95561.97;;;16.35;42.73